sensor_id;sensor_type;location;lat;lon;timestamp;P1;durP1;ratioP1;P2;durP2;ratioP2
55037;SDS011;40937;53.594;10.034;2023-02-10T00:01:30;52.33;;;29.58;;
55037;SDS011;40937;53.594;10.034;2023-02-10T00:03:57;51.75;;;31.08;;
55037;SDS011;40937;53.594;10.034;2023-02-10T00:06:30;50.33;;;31.50;;
55037;SDS011;40937;53.594;10.034;2023-02-10T00:08:59;66.55;;;30.85;;
55037;SDS011;40937;53.594;10.034;2023-02-10T00:11:27;45.33;;;30.52;;
55037;SDS011;40937;53.594;10.034;2023-02-10T00:14:14;47.40;;;30.13;;
55037;SDS011;40937;53.594;10.034;2023-02-10T00:16:43;57.25;;;29.80;;
55037;SDS011;40937;53.594;10.034;2023-02-10T00:19:10;51.35;;;31.52;;
55037;SDS011;40937;53.594;10.034;2023-02-10T00:21:39;43.83;;;30.33;;
55037;SDS011;40937;53.594;10.034;2023-02-10T00:24:07;53.13;;;31.05;;
55037;SDS011;40937;53.594;10.034;2023-02-10T00:26:34;55.38;;;32.00;;
55037;SDS011;40937;53.594;10.034;2023-02-10T00:29:01;59.97;;;33.25;;
55037;SDS011;40937;53.594;10.034;2023-02-10T00:31:29;54.83;;;30.65;;
55037;SDS011;40937;53.594;10.034;2023-02-10T00:33:56;47.13;;;29.88;;
55037;SDS011;40937;53.594;10.034;2023-02-10T00:36:26;53.15;;;30.00;;
55037;SDS011;40937;53.594;10.034;2023-02-10T00:38:55;43.03;;;30.60;;
55037;SDS011;40937;53.594;10.034;2023-02-10T00:41:23;48.55;;;29.75;;
55037;SDS011;40937;53.594;10.034;2023-02-10T00:43:53;49.15;;;30.40;;
55037;SDS011;40937;53.594;10.034;2023-02-10T00:46:20;54.05;;;30.80;;
55037;SDS011;40937;53.594;10.034;2023-02-10T00:48:49;56.50;;;30.35;;
55037;SDS011;40937;53.594;10.034;2023-02-10T00:51:17;55.60;;;29.52;;
55037;SDS011;40937;53.594;10.034;2023-02-10T00:53:44;51.72;;;31.15;;
55037;SDS011;40937;53.594;10.034;2023-02-10T00:56:15;60.75;;;30.80;;
55037;SDS011;40937;53.594;10.034;2023-02-10T00:58:43;46.95;;;28.08;;
55037;SDS011;40937;53.594;10.034;2023-02-10T01:01:12;44.85;;;29.50;;
55037;SDS011;40937;53.594;10.034;2023-02-10T01:03:38;47.30;;;27.67;;
55037;SDS011;40937;53.594;10.034;2023-02-10T01:06:06;45.60;;;28.65;;
55037;SDS011;40937;53.594;10.034;2023-02-10T01:08:34;49.95;;;27.30;;
55037;SDS011;40937;53.594;10.034;2023-02-10T01:11:01;51.70;;;27.48;;
55037;SDS011;40937;53.594;10.034;2023-02-10T01:13:30;62.25;;;28.75;;
55037;SDS011;40937;53.594;10.034;2023-02-10T01:15:59;51.20;;;26.30;;
55037;SDS011;40937;53.594;10.034;2023-02-10T01:18:26;52.00;;;28.67;;
55037;SDS011;40937;53.594;10.034;2023-02-10T01:20:53;45.22;;;27.23;;
55037;SDS011;40937;53.594;10.034;2023-02-10T01:23:19;40.55;;;26.08;;
55037;SDS011;40937;53.594;10.034;2023-02-10T01:25:46;43.75;;;26.10;;
55037;SDS011;40937;53.594;10.034;2023-02-10T01:28:14;47.72;;;27.45;;
55037;SDS011;40937;53.594;10.034;2023-02-10T01:30:45;43.97;;;25.85;;
55037;SDS011;40937;53.594;10.034;2023-02-10T01:33:13;56.58;;;25.90;;
55037;SDS011;40937;53.594;10.034;2023-02-10T01:35:39;42.13;;;27.88;;
55037;SDS011;40937;53.594;10.034;2023-02-10T01:38:06;58.88;;;26.88;;
55037;SDS011;40937;53.594;10.034;2023-02-10T01:40:33;44.28;;;24.52;;
55037;SDS011;40937;53.594;10.034;2023-02-10T01:42:59;46.70;;;26.58;;
55037;SDS011;40937;53.594;10.034;2023-02-10T01:45:27;40.67;;;26.25;;
55037;SDS011;40937;53.594;10.034;2023-02-10T01:47:58;39.38;;;25.40;;
55037;SDS011;40937;53.594;10.034;2023-02-10T01:50:26;37.65;;;26.30;;
55037;SDS011;40937;53.594;10.034;2023-02-10T01:52:55;41.10;;;26.63;;
55037;SDS011;40937;53.594;10.034;2023-02-10T01:55:24;45.15;;;27.42;;
55037;SDS011;40937;53.594;10.034;2023-02-10T01:57:54;38.45;;;25.77;;
55037;SDS011;40937;53.594;10.034;2023-02-10T02:00:22;45.58;;;25.88;;
55037;SDS011;40937;53.594;10.034;2023-02-10T02:02:50;45.95;;;27.17;;
55037;SDS011;40937;53.594;10.034;2023-02-10T02:05:30;40.40;;;24.35;;
55037;SDS011;40937;53.594;10.034;2023-02-10T02:07:59;37.88;;;23.63;;
55037;SDS011;40937;53.594;10.034;2023-02-10T02:10:34;41.42;;;25.65;;
55037;SDS011;40937;53.594;10.034;2023-02-10T02:13:08;40.75;;;24.40;;
55037;SDS011;40937;53.594;10.034;2023-02-10T02:15:45;40.40;;;24.52;;
55037;SDS011;40937;53.594;10.034;2023-02-10T02:18:19;43.15;;;24.08;;
55037;SDS011;40937;53.594;10.034;2023-02-10T02:21:08;40.05;;;24.83;;
55037;SDS011;40937;53.594;10.034;2023-02-10T02:24:11;44.78;;;24.70;;
55037;SDS011;40937;53.594;10.034;2023-02-10T02:27:13;50.88;;;26.05;;
55037;SDS011;40937;53.594;10.034;2023-02-10T02:30:01;38.25;;;23.88;;
55037;SDS011;40937;53.594;10.034;2023-02-10T02:32:39;36.25;;;22.42;;
55037;SDS011;40937;53.594;10.034;2023-02-10T02:35:10;44.95;;;24.48;;
55037;SDS011;40937;53.594;10.034;2023-02-10T02:37:40;35.75;;;22.65;;
55037;SDS011;40937;53.594;10.034;2023-02-10T02:40:09;44.83;;;24.10;;
55037;SDS011;40937;53.594;10.034;2023-02-10T02:42:37;39.63;;;24.13;;
55037;SDS011;40937;53.594;10.034;2023-02-10T02:45:04;37.10;;;22.63;;
55037;SDS011;40937;53.594;10.034;2023-02-10T02:47:38;50.60;;;24.02;;
55037;SDS011;40937;53.594;10.034;2023-02-10T02:50:22;39.45;;;25.08;;
55037;SDS011;40937;53.594;10.034;2023-02-10T02:52:58;39.40;;;23.85;;
55037;SDS011;40937;53.594;10.034;2023-02-10T02:55:47;43.85;;;22.75;;
55037;SDS011;40937;53.594;10.034;2023-02-10T02:58:29;38.67;;;22.20;;
55037;SDS011;40937;53.594;10.034;2023-02-10T03:01:01;37.88;;;24.40;;
55037;SDS011;40937;53.594;10.034;2023-02-10T03:03:33;39.33;;;25.13;;
55037;SDS011;40937;53.594;10.034;2023-02-10T03:06:01;41.30;;;23.58;;
55037;SDS011;40937;53.594;10.034;2023-02-10T03:08:29;40.25;;;24.42;;
55037;SDS011;40937;53.594;10.034;2023-02-10T03:10:57;37.47;;;24.52;;
55037;SDS011;40937;53.594;10.034;2023-02-10T03:13:24;35.08;;;23.02;;
55037;SDS011;40937;53.594;10.034;2023-02-10T03:15:50;42.85;;;24.90;;
55037;SDS011;40937;53.594;10.034;2023-02-10T03:18:17;44.28;;;23.25;;
55037;SDS011;40937;53.594;10.034;2023-02-10T03:20:45;47.67;;;23.67;;
55037;SDS011;40937;53.594;10.034;2023-02-10T03:23:12;35.17;;;22.65;;
55037;SDS011;40937;53.594;10.034;2023-02-10T03:25:38;44.15;;;22.60;;
55037;SDS011;40937;53.594;10.034;2023-02-10T03:28:05;40.45;;;24.67;;
55037;SDS011;40937;53.594;10.034;2023-02-10T03:30:32;41.10;;;24.15;;
55037;SDS011;40937;53.594;10.034;2023-02-10T03:32:59;40.20;;;23.65;;
55037;SDS011;40937;53.594;10.034;2023-02-10T03:35:26;33.13;;;22.73;;
55037;SDS011;40937;53.594;10.034;2023-02-10T03:37:54;42.75;;;25.05;;
55037;SDS011;40937;53.594;10.034;2023-02-10T03:40:21;45.95;;;24.73;;
55037;SDS011;40937;53.594;10.034;2023-02-10T03:42:47;42.13;;;23.90;;
55037;SDS011;40937;53.594;10.034;2023-02-10T03:45:14;45.97;;;23.73;;
55037;SDS011;40937;53.594;10.034;2023-02-10T03:47:41;34.25;;;23.13;;
55037;SDS011;40937;53.594;10.034;2023-02-10T03:50:08;34.83;;;22.92;;
55037;SDS011;40937;53.594;10.034;2023-02-10T03:52:35;40.83;;;23.35;;
55037;SDS011;40937;53.594;10.034;2023-02-10T03:55:03;37.08;;;23.38;;
55037;SDS011;40937;53.594;10.034;2023-02-10T03:57:30;44.28;;;24.95;;
55037;SDS011;40937;53.594;10.034;2023-02-10T03:59:57;54.28;;;24.25;;
55037;SDS011;40937;53.594;10.034;2023-02-10T04:02:23;42.38;;;24.30;;
55037;SDS011;40937;53.594;10.034;2023-02-10T04:04:50;47.92;;;25.02;;
55037;SDS011;40937;53.594;10.034;2023-02-10T04:07:17;44.53;;;25.05;;
55037;SDS011;40937;53.594;10.034;2023-02-10T04:09:43;39.25;;;25.65;;
55037;SDS011;40937;53.594;10.034;2023-02-10T04:12:12;39.00;;;22.35;;
55037;SDS011;40937;53.594;10.034;2023-02-10T04:14:38;41.40;;;25.13;;
55037;SDS011;40937;53.594;10.034;2023-02-10T04:17:05;49.35;;;25.02;;
55037;SDS011;40937;53.594;10.034;2023-02-10T04:19:31;38.17;;;25.48;;
55037;SDS011;40937;53.594;10.034;2023-02-10T04:21:58;46.03;;;26.35;;
55037;SDS011;40937;53.594;10.034;2023-02-10T04:24:25;39.60;;;26.25;;
55037;SDS011;40937;53.594;10.034;2023-02-10T04:26:51;45.38;;;24.75;;
55037;SDS011;40937;53.594;10.034;2023-02-10T04:29:19;46.45;;;25.85;;
55037;SDS011;40937;53.594;10.034;2023-02-10T04:31:47;38.40;;;24.52;;
55037;SDS011;40937;53.594;10.034;2023-02-10T04:34:13;43.97;;;24.73;;
55037;SDS011;40937;53.594;10.034;2023-02-10T04:36:40;46.55;;;25.38;;
55037;SDS011;40937;53.594;10.034;2023-02-10T04:39:07;43.67;;;26.77;;
55037;SDS011;40937;53.594;10.034;2023-02-10T04:41:34;47.30;;;26.92;;
55037;SDS011;40937;53.594;10.034;2023-02-10T04:44:01;37.38;;;24.77;;
55037;SDS011;40937;53.594;10.034;2023-02-10T04:46:29;46.78;;;26.17;;
55037;SDS011;40937;53.594;10.034;2023-02-10T04:48:56;42.63;;;26.05;;
55037;SDS011;40937;53.594;10.034;2023-02-10T04:51:22;43.75;;;26.23;;
55037;SDS011;40937;53.594;10.034;2023-02-10T04:53:49;42.33;;;26.63;;
55037;SDS011;40937;53.594;10.034;2023-02-10T04:56:16;43.80;;;25.00;;
55037;SDS011;40937;53.594;10.034;2023-02-10T04:58:42;36.90;;;24.60;;
55037;SDS011;40937;53.594;10.034;2023-02-10T05:01:09;55.10;;;25.20;;
55037;SDS011;40937;53.594;10.034;2023-02-10T05:03:37;40.70;;;25.70;;
55037;SDS011;40937;53.594;10.034;2023-02-10T05:06:07;43.50;;;26.75;;
55037;SDS011;40937;53.594;10.034;2023-02-10T05:08:35;40.90;;;24.50;;
55037;SDS011;40937;53.594;10.034;2023-02-10T05:11:06;43.53;;;24.25;;
55037;SDS011;40937;53.594;10.034;2023-02-10T05:13:33;37.25;;;23.33;;
55037;SDS011;40937;53.594;10.034;2023-02-10T05:16:00;43.47;;;24.67;;
55037;SDS011;40937;53.594;10.034;2023-02-10T05:18:28;41.65;;;23.77;;
55037;SDS011;40937;53.594;10.034;2023-02-10T05:20:56;49.42;;;25.42;;
55037;SDS011;40937;53.594;10.034;2023-02-10T05:23:22;40.92;;;22.48;;
55037;SDS011;40937;53.594;10.034;2023-02-10T05:25:49;45.50;;;24.13;;
55037;SDS011;40937;53.594;10.034;2023-02-10T05:28:16;43.42;;;23.70;;
55037;SDS011;40937;53.594;10.034;2023-02-10T05:30:42;47.70;;;23.55;;
55037;SDS011;40937;53.594;10.034;2023-02-10T05:33:09;45.80;;;24.40;;
55037;SDS011;40937;53.594;10.034;2023-02-10T05:35:36;44.60;;;24.58;;
55037;SDS011;40937;53.594;10.034;2023-02-10T05:38:04;53.75;;;25.05;;
55037;SDS011;40937;53.594;10.034;2023-02-10T05:40:31;44.78;;;24.17;;
55037;SDS011;40937;53.594;10.034;2023-02-10T05:42:58;52.00;;;24.30;;
55037;SDS011;40937;53.594;10.034;2023-02-10T05:45:25;47.80;;;25.38;;
55037;SDS011;40937;53.594;10.034;2023-02-10T05:47:52;39.38;;;23.20;;
55037;SDS011;40937;53.594;10.034;2023-02-10T05:50:18;43.08;;;24.42;;
55037;SDS011;40937;53.594;10.034;2023-02-10T05:52:45;50.03;;;25.15;;
55037;SDS011;40937;53.594;10.034;2023-02-10T05:55:13;42.53;;;24.15;;
55037;SDS011;40937;53.594;10.034;2023-02-10T05:57:40;40.47;;;23.83;;
55037;SDS011;40937;53.594;10.034;2023-02-10T06:00:07;47.30;;;24.77;;
55037;SDS011;40937;53.594;10.034;2023-02-10T06:02:38;38.88;;;23.45;;
55037;SDS011;40937;53.594;10.034;2023-02-10T06:05:05;45.67;;;24.48;;
55037;SDS011;40937;53.594;10.034;2023-02-10T06:07:32;44.95;;;23.75;;
55037;SDS011;40937;53.594;10.034;2023-02-10T06:09:59;37.03;;;21.45;;
55037;SDS011;40937;53.594;10.034;2023-02-10T06:12:27;48.47;;;23.48;;
55037;SDS011;40937;53.594;10.034;2023-02-10T06:14:53;37.40;;;23.08;;
55037;SDS011;40937;53.594;10.034;2023-02-10T06:17:20;42.28;;;23.63;;
55037;SDS011;40937;53.594;10.034;2023-02-10T06:19:47;41.40;;;22.58;;
55037;SDS011;40937;53.594;10.034;2023-02-10T06:22:13;58.00;;;24.55;;
55037;SDS011;40937;53.594;10.034;2023-02-10T06:24:40;43.83;;;23.98;;
55037;SDS011;40937;53.594;10.034;2023-02-10T06:27:07;38.65;;;24.00;;
55037;SDS011;40937;53.594;10.034;2023-02-10T06:29:35;35.65;;;22.58;;
55037;SDS011;40937;53.594;10.034;2023-02-10T06:32:02;43.95;;;24.70;;
55037;SDS011;40937;53.594;10.034;2023-02-10T06:34:30;43.08;;;24.30;;
55037;SDS011;40937;53.594;10.034;2023-02-10T06:36:56;45.95;;;25.13;;
55037;SDS011;40937;53.594;10.034;2023-02-10T06:39:23;47.28;;;24.02;;
55037;SDS011;40937;53.594;10.034;2023-02-10T06:41:50;38.22;;;23.52;;
55037;SDS011;40937;53.594;10.034;2023-02-10T06:44:17;47.58;;;25.40;;
55037;SDS011;40937;53.594;10.034;2023-02-10T06:46:45;45.75;;;23.45;;
55037;SDS011;40937;53.594;10.034;2023-02-10T06:49:11;48.63;;;24.58;;
55037;SDS011;40937;53.594;10.034;2023-02-10T06:51:38;52.25;;;23.38;;
55037;SDS011;40937;53.594;10.034;2023-02-10T06:54:05;42.90;;;23.55;;
55037;SDS011;40937;53.594;10.034;2023-02-10T06:56:31;44.20;;;25.63;;
55037;SDS011;40937;53.594;10.034;2023-02-10T06:58:58;41.28;;;23.50;;
55037;SDS011;40937;53.594;10.034;2023-02-10T07:01:25;46.10;;;25.38;;
55037;SDS011;40937;53.594;10.034;2023-02-10T07:03:53;43.90;;;25.67;;
55037;SDS011;40937;53.594;10.034;2023-02-10T07:06:20;38.15;;;23.65;;
55037;SDS011;40937;53.594;10.034;2023-02-10T07:08:47;48.65;;;24.73;;
55037;SDS011;40937;53.594;10.034;2023-02-10T07:11:15;48.72;;;25.30;;
55037;SDS011;40937;53.594;10.034;2023-02-10T07:13:42;44.83;;;24.38;;
55037;SDS011;40937;53.594;10.034;2023-02-10T07:16:09;44.97;;;25.17;;
55037;SDS011;40937;53.594;10.034;2023-02-10T07:18:39;65.85;;;27.10;;
55037;SDS011;40937;53.594;10.034;2023-02-10T07:21:07;52.05;;;25.73;;
55037;SDS011;40937;53.594;10.034;2023-02-10T07:23:34;46.95;;;26.02;;
55037;SDS011;40937;53.594;10.034;2023-02-10T07:26:01;48.55;;;26.33;;
55037;SDS011;40937;53.594;10.034;2023-02-10T07:28:27;57.13;;;26.05;;
55037;SDS011;40937;53.594;10.034;2023-02-10T07:30:54;56.80;;;26.65;;
55037;SDS011;40937;53.594;10.034;2023-02-10T07:33:21;53.75;;;24.83;;
55037;SDS011;40937;53.594;10.034;2023-02-10T07:35:47;56.40;;;25.73;;
55037;SDS011;40937;53.594;10.034;2023-02-10T07:38:16;45.20;;;25.35;;
55037;SDS011;40937;53.594;10.034;2023-02-10T07:40:43;56.85;;;25.48;;
55037;SDS011;40937;53.594;10.034;2023-02-10T07:43:09;56.20;;;26.02;;
55037;SDS011;40937;53.594;10.034;2023-02-10T07:45:42;48.13;;;25.73;;
55037;SDS011;40937;53.594;10.034;2023-02-10T07:48:09;53.60;;;24.42;;
55037;SDS011;40937;53.594;10.034;2023-02-10T07:50:36;50.63;;;24.33;;
55037;SDS011;40937;53.594;10.034;2023-02-10T07:53:03;49.83;;;25.25;;
55037;SDS011;40937;53.594;10.034;2023-02-10T07:55:32;48.72;;;23.92;;
55037;SDS011;40937;53.594;10.034;2023-02-10T07:57:58;51.80;;;25.17;;
55037;SDS011;40937;53.594;10.034;2023-02-10T08:00:25;50.00;;;24.75;;
55037;SDS011;40937;53.594;10.034;2023-02-10T08:02:52;46.47;;;24.40;;
55037;SDS011;40937;53.594;10.034;2023-02-10T08:05:18;40.80;;;24.00;;
55037;SDS011;40937;53.594;10.034;2023-02-10T08:07:46;54.92;;;25.80;;
55037;SDS011;40937;53.594;10.034;2023-02-10T08:10:13;59.78;;;24.77;;
55037;SDS011;40937;53.594;10.034;2023-02-10T08:12:41;46.65;;;26.38;;
55037;SDS011;40937;53.594;10.034;2023-02-10T08:15:08;47.40;;;24.65;;
55037;SDS011;40937;53.594;10.034;2023-02-10T08:17:35;43.03;;;24.85;;
55037;SDS011;40937;53.594;10.034;2023-02-10T08:20:03;59.70;;;24.95;;
55037;SDS011;40937;53.594;10.034;2023-02-10T08:22:31;58.15;;;26.33;;
55037;SDS011;40937;53.594;10.034;2023-02-10T08:24:58;61.35;;;25.80;;
55037;SDS011;40937;53.594;10.034;2023-02-10T08:27:25;50.50;;;24.42;;
55037;SDS011;40937;53.594;10.034;2023-02-10T08:29:53;44.83;;;25.13;;
55037;SDS011;40937;53.594;10.034;2023-02-10T08:32:19;55.35;;;23.98;;
55037;SDS011;40937;53.594;10.034;2023-02-10T08:34:47;45.28;;;23.02;;
55037;SDS011;40937;53.594;10.034;2023-02-10T08:37:15;55.80;;;23.63;;
55037;SDS011;40937;53.594;10.034;2023-02-10T08:39:43;47.08;;;24.33;;
55037;SDS011;40937;53.594;10.034;2023-02-10T08:42:10;53.20;;;25.00;;
55037;SDS011;40937;53.594;10.034;2023-02-10T08:44:37;52.58;;;26.15;;
55037;SDS011;40937;53.594;10.034;2023-02-10T08:47:05;59.90;;;26.65;;
55037;SDS011;40937;53.594;10.034;2023-02-10T08:49:31;49.47;;;24.15;;
55037;SDS011;40937;53.594;10.034;2023-02-10T08:51:58;42.50;;;26.00;;
55037;SDS011;40937;53.594;10.034;2023-02-10T08:54:25;46.25;;;25.45;;
55037;SDS011;40937;53.594;10.034;2023-02-10T08:56:52;57.53;;;25.35;;
55037;SDS011;40937;53.594;10.034;2023-02-10T08:59:19;52.40;;;24.33;;
55037;SDS011;40937;53.594;10.034;2023-02-10T09:01:46;53.75;;;24.45;;
55037;SDS011;40937;53.594;10.034;2023-02-10T09:04:14;86.05;;;25.55;;
55037;SDS011;40937;53.594;10.034;2023-02-10T09:06:41;55.28;;;26.33;;
55037;SDS011;40937;53.594;10.034;2023-02-10T09:09:08;45.33;;;25.50;;
55037;SDS011;40937;53.594;10.034;2023-02-10T09:11:36;50.70;;;25.63;;
55037;SDS011;40937;53.594;10.034;2023-02-10T09:14:03;62.70;;;25.73;;
55037;SDS011;40937;53.594;10.034;2023-02-10T09:16:30;48.75;;;24.98;;
55037;SDS011;40937;53.594;10.034;2023-02-10T09:18:57;61.45;;;25.02;;
55037;SDS011;40937;53.594;10.034;2023-02-10T09:21:25;64.88;;;24.73;;
55037;SDS011;40937;53.594;10.034;2023-02-10T09:23:52;56.45;;;24.17;;
55037;SDS011;40937;53.594;10.034;2023-02-10T09:26:19;58.20;;;24.85;;
55037;SDS011;40937;53.594;10.034;2023-02-10T09:28:45;62.45;;;26.17;;
55037;SDS011;40937;53.594;10.034;2023-02-10T09:31:13;57.10;;;24.85;;
55037;SDS011;40937;53.594;10.034;2023-02-10T09:33:41;78.65;;;24.95;;
55037;SDS011;40937;53.594;10.034;2023-02-10T09:36:09;64.13;;;25.73;;
55037;SDS011;40937;53.594;10.034;2023-02-10T09:38:41;44.53;;;25.05;;
55037;SDS011;40937;53.594;10.034;2023-02-10T09:41:11;49.38;;;25.00;;
55037;SDS011;40937;53.594;10.034;2023-02-10T09:43:48;50.80;;;25.80;;
55037;SDS011;40937;53.594;10.034;2023-02-10T09:46:26;56.80;;;25.55;;
55037;SDS011;40937;53.594;10.034;2023-02-10T09:49:04;52.30;;;24.63;;
55037;SDS011;40937;53.594;10.034;2023-02-10T09:51:43;53.72;;;25.90;;
55037;SDS011;40937;53.594;10.034;2023-02-10T09:54:20;49.13;;;26.08;;
55037;SDS011;40937;53.594;10.034;2023-02-10T09:56:48;62.80;;;25.63;;
55037;SDS011;40937;53.594;10.034;2023-02-10T09:59:16;49.88;;;26.33;;
55037;SDS011;40937;53.594;10.034;2023-02-10T10:01:48;54.50;;;26.10;;
55037;SDS011;40937;53.594;10.034;2023-02-10T10:04:18;56.58;;;27.65;;
55037;SDS011;40937;53.594;10.034;2023-02-10T10:06:48;55.72;;;25.77;;
55037;SDS011;40937;53.594;10.034;2023-02-10T10:09:23;43.45;;;26.33;;
55037;SDS011;40937;53.594;10.034;2023-02-10T10:11:56;43.05;;;25.77;;
55037;SDS011;40937;53.594;10.034;2023-02-10T10:14:25;47.80;;;25.23;;
55037;SDS011;40937;53.594;10.034;2023-02-10T10:17:02;57.22;;;24.90;;
55037;SDS011;40937;53.594;10.034;2023-02-10T10:19:39;51.42;;;25.35;;
55037;SDS011;40937;53.594;10.034;2023-02-10T10:22:27;45.92;;;24.40;;
55037;SDS011;40937;53.594;10.034;2023-02-10T12:00:19;45.60;;;21.10;;
55037;SDS011;40937;53.594;10.034;2023-02-10T12:03:05;40.00;;;20.90;;
55037;SDS011;40937;53.594;10.034;2023-02-10T12:05:49;38.42;;;18.90;;
55037;SDS011;40937;53.594;10.034;2023-02-10T12:08:21;37.90;;;17.63;;
55037;SDS011;40937;53.594;10.034;2023-02-10T12:10:57;28.13;;;17.98;;
55037;SDS011;40937;53.594;10.034;2023-02-10T12:13:29;26.88;;;15.95;;
55037;SDS011;40937;53.594;10.034;2023-02-10T12:16:07;35.65;;;16.63;;
55037;SDS011;40937;53.594;10.034;2023-02-10T12:18:49;35.40;;;16.63;;
55037;SDS011;40937;53.594;10.034;2023-02-10T12:24:24;28.20;;;14.57;;
55037;SDS011;40937;53.594;10.034;2023-02-10T14:42:57;22.25;;;10.90;;
55037;SDS011;40937;53.594;10.034;2023-02-10T14:45:27;21.85;;;10.15;;
55037;SDS011;40937;53.594;10.034;2023-02-10T14:47:55;22.75;;;11.35;;
55037;SDS011;40937;53.594;10.034;2023-02-10T14:50:25;30.27;;;11.18;;
55037;SDS011;40937;53.594;10.034;2023-02-10T14:52:53;20.50;;;12.40;;
55037;SDS011;40937;53.594;10.034;2023-02-10T14:55:21;18.58;;;10.63;;
55037;SDS011;40937;53.594;10.034;2023-02-10T14:57:50;19.73;;;11.68;;
55037;SDS011;40937;53.594;10.034;2023-02-10T15:00:18;15.02;;;10.18;;
55037;SDS011;40937;53.594;10.034;2023-02-10T15:02:46;17.33;;;11.15;;
55037;SDS011;40937;53.594;10.034;2023-02-10T15:05:17;22.65;;;11.07;;
55037;SDS011;40937;53.594;10.034;2023-02-10T15:07:47;26.25;;;11.10;;
55037;SDS011;40937;53.594;10.034;2023-02-10T15:10:19;22.75;;;11.07;;
55037;SDS011;40937;53.594;10.034;2023-02-10T15:12:53;16.30;;;11.23;;
55037;SDS011;40937;53.594;10.034;2023-02-10T15:15:24;17.33;;;11.80;;
55037;SDS011;40937;53.594;10.034;2023-02-10T15:17:55;23.45;;;11.65;;
55037;SDS011;40937;53.594;10.034;2023-02-10T15:20:27;16.92;;;11.73;;
55037;SDS011;40937;53.594;10.034;2023-02-10T15:23:09;21.90;;;12.13;;
55037;SDS011;40937;53.594;10.034;2023-02-10T15:25:39;21.10;;;11.65;;
55037;SDS011;40937;53.594;10.034;2023-02-10T15:28:18;28.30;;;11.50;;
55037;SDS011;40937;53.594;10.034;2023-02-10T15:30:51;20.20;;;12.73;;
55037;SDS011;40937;53.594;10.034;2023-02-10T15:33:22;21.00;;;12.15;;
55037;SDS011;40937;53.594;10.034;2023-02-10T15:35:51;36.22;;;23.25;;
55037;SDS011;40937;53.594;10.034;2023-02-10T15:38:19;25.55;;;13.63;;
55037;SDS011;40937;53.594;10.034;2023-02-10T15:40:50;19.73;;;13.25;;
55037;SDS011;40937;53.594;10.034;2023-02-10T15:43:24;19.67;;;13.40;;
55037;SDS011;40937;53.594;10.034;2023-02-10T15:46:04;28.90;;;14.48;;
55037;SDS011;40937;53.594;10.034;2023-02-10T15:48:33;22.77;;;13.25;;
55037;SDS011;40937;53.594;10.034;2023-02-10T15:50:59;25.77;;;14.90;;
55037;SDS011;40937;53.594;10.034;2023-02-10T15:53:26;21.20;;;14.55;;
55037;SDS011;40937;53.594;10.034;2023-02-10T15:55:53;24.90;;;14.95;;
55037;SDS011;40937;53.594;10.034;2023-02-10T15:58:20;22.75;;;14.38;;
55037;SDS011;40937;53.594;10.034;2023-02-10T16:00:47;27.67;;;15.65;;
55037;SDS011;40937;53.594;10.034;2023-02-10T16:03:15;26.48;;;15.73;;
55037;SDS011;40937;53.594;10.034;2023-02-10T16:05:42;26.50;;;15.90;;
55037;SDS011;40937;53.594;10.034;2023-02-10T16:08:11;22.23;;;16.92;;
55037;SDS011;40937;53.594;10.034;2023-02-10T16:10:43;24.45;;;17.38;;
55037;SDS011;40937;53.594;10.034;2023-02-10T16:13:11;23.75;;;17.38;;
55037;SDS011;40937;53.594;10.034;2023-02-10T16:15:39;24.17;;;18.00;;
55037;SDS011;40937;53.594;10.034;2023-02-10T16:18:08;30.60;;;18.30;;
55037;SDS011;40937;53.594;10.034;2023-02-10T16:20:39;26.45;;;18.77;;
55037;SDS011;40937;53.594;10.034;2023-02-10T16:23:08;26.77;;;18.50;;
55037;SDS011;40937;53.594;10.034;2023-02-10T16:25:37;23.20;;;17.48;;
55037;SDS011;40937;53.594;10.034;2023-02-10T16:28:05;27.27;;;18.35;;
55037;SDS011;40937;53.594;10.034;2023-02-10T16:30:32;28.02;;;18.33;;
55037;SDS011;40937;53.594;10.034;2023-02-10T16:33:01;29.50;;;18.27;;
55037;SDS011;40937;53.594;10.034;2023-02-10T16:35:28;29.83;;;20.05;;
55037;SDS011;40937;53.594;10.034;2023-02-10T16:37:56;24.88;;;19.13;;
55037;SDS011;40937;53.594;10.034;2023-02-10T16:40:24;22.77;;;18.35;;
55037;SDS011;40937;53.594;10.034;2023-02-10T16:42:52;31.73;;;20.45;;
55037;SDS011;40937;53.594;10.034;2023-02-10T16:45:19;41.05;;;19.88;;
55037;SDS011;40937;53.594;10.034;2023-02-10T16:47:47;23.58;;;18.50;;
55037;SDS011;40937;53.594;10.034;2023-02-10T16:50:18;31.17;;;20.77;;
55037;SDS011;40937;53.594;10.034;2023-02-10T16:52:49;37.78;;;19.58;;
55037;SDS011;40937;53.594;10.034;2023-02-10T16:55:18;28.95;;;19.23;;
55037;SDS011;40937;53.594;10.034;2023-02-10T16:57:45;35.65;;;20.35;;
55037;SDS011;40937;53.594;10.034;2023-02-10T17:00:12;34.00;;;21.08;;
55037;SDS011;40937;53.594;10.034;2023-02-10T17:02:40;28.42;;;19.70;;
55037;SDS011;40937;53.594;10.034;2023-02-10T17:05:07;27.73;;;20.45;;
55037;SDS011;40937;53.594;10.034;2023-02-10T17:07:35;26.65;;;19.67;;
55037;SDS011;40937;53.594;10.034;2023-02-10T17:10:02;28.50;;;20.08;;
55037;SDS011;40937;53.594;10.034;2023-02-10T17:12:31;27.60;;;19.80;;
55037;SDS011;40937;53.594;10.034;2023-02-10T17:14:58;24.88;;;19.45;;
55037;SDS011;40937;53.594;10.034;2023-02-10T17:17:24;26.80;;;19.20;;
55037;SDS011;40937;53.594;10.034;2023-02-10T17:19:51;24.33;;;19.05;;
55037;SDS011;40937;53.594;10.034;2023-02-10T17:22:18;27.85;;;19.63;;
55037;SDS011;40937;53.594;10.034;2023-02-10T17:24:44;26.33;;;18.98;;
55037;SDS011;40937;53.594;10.034;2023-02-10T17:27:11;35.92;;;19.17;;
55037;SDS011;40937;53.594;10.034;2023-02-10T17:29:39;28.55;;;18.55;;
55037;SDS011;40937;53.594;10.034;2023-02-10T17:32:06;28.88;;;19.70;;
55037;SDS011;40937;53.594;10.034;2023-02-10T17:34:33;24.90;;;18.65;;
55037;SDS011;40937;53.594;10.034;2023-02-10T17:37:00;25.42;;;18.67;;
55037;SDS011;40937;53.594;10.034;2023-02-10T17:39:28;30.98;;;19.13;;
55037;SDS011;40937;53.594;10.034;2023-02-10T17:42:05;31.85;;;18.77;;
55037;SDS011;40937;53.594;10.034;2023-02-10T17:44:32;24.33;;;18.75;;
55037;SDS011;40937;53.594;10.034;2023-02-10T17:47:00;24.00;;;18.05;;
55037;SDS011;40937;53.594;10.034;2023-02-10T17:49:27;26.45;;;18.30;;
55037;SDS011;40937;53.594;10.034;2023-02-10T17:51:55;22.88;;;16.92;;
55037;SDS011;40937;53.594;10.034;2023-02-10T17:54:22;27.70;;;18.10;;
55037;SDS011;40937;53.594;10.034;2023-02-10T17:56:49;26.88;;;19.02;;
55037;SDS011;40937;53.594;10.034;2023-02-10T17:59:16;24.33;;;17.98;;
55037;SDS011;40937;53.594;10.034;2023-02-10T18:01:43;25.33;;;17.88;;
55037;SDS011;40937;53.594;10.034;2023-02-10T18:04:13;27.83;;;18.17;;
55037;SDS011;40937;53.594;10.034;2023-02-10T18:06:42;28.95;;;18.27;;
55037;SDS011;40937;53.594;10.034;2023-02-10T18:09:09;27.13;;;18.35;;
55037;SDS011;40937;53.594;10.034;2023-02-10T18:11:35;26.65;;;18.15;;
55037;SDS011;40937;53.594;10.034;2023-02-10T18:14:02;27.13;;;18.52;;